Time;durP1;ratioP1;P1;durP2;ratioP2;P2;SDS_P1;SDS_P2;PMS_P1;PMS_P2;Temp;Humidity;BMP_temperature;BMP_pressure;BME280_temperature;BME280_humidity;BME280_pressure;Samples;Min_cycle;Max_cycle;Signal;HPM_P1;HPM_P2
2021/05/08 00:00:31;;;;;;;10.00;2.92;;;;;;;18.73;33.36;100639.91;5072164;28;20394;-73
2021/05/08 00:02:56;;;;;;;8.15;1.95;;;;;;;18.81;33.08;100636.06;5072222;28;20032;-74
2021/05/08 00:05:22;;;;;;;11.50;3.40;;;;;;;19.27;32.52;100624.91;5072178;28;20395;-73
2021/05/08 00:07:48;;;;;;;7.15;2.42;;;;;;;18.97;32.92;100604.69;5072264;28;20031;-73
2021/05/08 00:10:16;;;;;;;6.05;1.90;;;;;;;18.77;33.44;100604.78;5070901;28;20039;-73
2021/05/08 00:12:42;;;;;;;11.32;2.33;;;;;;;18.63;33.42;100593.44;5072091;28;20033;-73
2021/05/08 00:15:12;;;;;;;7.18;2.10;;;;;;;19.20;33.36;100590.78;5072118;28;20028;-74
2021/05/08 00:17:39;;;;;;;14.80;2.33;;;;;;;18.89;33.51;100583.59;5072039;28;20044;-73
2021/05/08 00:20:09;;;;;;;15.65;3.38;;;;;;;19.00;33.83;100579.03;5072075;28;20029;-80
2021/05/08 00:22:35;;;;;;;6.38;2.33;;;;;;;18.92;33.84;100578.13;5071963;28;20032;-75
2021/05/08 00:25:00;;;;;;;11.63;2.80;;;;;;;18.90;33.47;100577.69;5072014;28;20437;-73
2021/05/08 00:27:26;;;;;;;6.38;1.45;;;;;;;18.77;33.12;100559.69;5072547;28;20082;-73
2021/05/08 00:29:52;;;;;;;8.50;2.00;;;;;;;18.59;34.15;100564.94;5075715;28;20058;-73
2021/05/08 00:32:17;;;;;;;9.32;2.10;;;;;;;19.02;33.40;100560.06;5075713;28;20494;-74
2021/05/08 00:34:43;;;;;;;7.40;2.78;;;;;;;19.12;32.99;100543.59;5075624;28;20073;-74
2021/05/08 00:37:09;;;;;;;12.40;2.58;;;;;;;18.71;33.93;100541.81;5075676;28;20383;-73
2021/05/08 00:39:34;;;;;;;10.30;2.40;;;;;;;18.76;33.71;100533.19;5075563;28;20025;-73
2021/05/08 00:42:00;;;;;;;16.40;2.72;;;;;;;19.21;32.93;100520.38;5075195;28;20075;-73
2021/05/08 00:44:26;;;;;;;8.88;2.22;;;;;;;19.32;32.97;100511.00;5075413;28;20356;-74
2021/05/08 00:46:52;;;;;;;11.45;2.45;;;;;;;18.94;34.16;100505.75;5075484;28;20051;-74
2021/05/08 00:49:19;;;;;;;6.03;1.90;;;;;;;18.80;33.92;100490.53;5075362;28;20032;-73
2021/05/08 00:51:46;;;;;;;9.88;2.42;;;;;;;18.69;34.35;100492.38;5075315;28;20134;-73
2021/05/08 00:54:11;;;;;;;9.35;2.60;;;;;;;19.17;32.91;100489.03;5075299;28;20024;-78
2021/05/08 00:56:37;;;;;;;17.00;3.15;;;;;;;19.21;32.93;100476.84;5075239;28;20024;-74
2021/05/08 00:59:03;;;;;;;10.07;3.05;;;;;;;19.17;32.94;100461.34;5075201;28;20024;-74
2021/05/08 01:01:29;;;;;;;7.20;2.47;;;;;;;18.96;32.91;100453.56;5075099;28;20055;-74
2021/05/08 01:03:54;;;;;;;9.65;2.35;;;;;;;19.24;32.58;100442.84;5075126;28;20021;-73
2021/05/08 01:06:20;;;;;;;10.48;2.38;;;;;;;19.21;32.20;100445.59;5075154;28;20024;-73
2021/05/08 01:08:46;;;;;;;6.75;2.33;;;;;;;18.81;32.91;100442.31;5075040;28;20028;-73
2021/05/08 01:11:12;;;;;;;7.65;2.47;;;;;;;19.07;30.95;100426.81;5074985;28;20052;-73
2021/05/08 01:13:37;;;;;;;4.55;1.67;;;;;;;18.92;31.55;100416.75;5074941;28;20082;-74
2021/05/08 01:16:03;;;;;;;9.82;1.80;;;;;;;18.99;30.57;100411.31;5074899;28;20032;-80
2021/05/08 01:18:31;;;;;;;7.32;2.25;;;;;;;19.06;30.60;100411.38;5074830;28;20020;-73
2021/05/08 01:20:57;;;;;;;5.95;1.98;;;;;;;18.91;30.47;100399.34;5074747;28;20577;-73
2021/05/08 01:23:23;;;;;;;3.72;1.65;;;;;;;19.07;30.33;100399.94;5074790;28;20020;-81
2021/05/08 01:25:50;;;;;;;6.75;1.75;;;;;;;19.28;30.08;100391.06;5074760;28;20052;-74
2021/05/08 01:28:16;;;;;;;5.57;2.15;;;;;;;18.76;30.68;100378.22;5074632;28;20056;-74
2021/05/08 01:30:41;;;;;;;7.82;2.25;;;;;;;18.86;30.75;100377.53;5073389;28;20517;-79
2021/05/08 01:33:07;;;;;;;4.88;1.80;;;;;;;19.10;30.61;100373.44;5074595;28;20474;-73
2021/05/08 01:35:34;;;;;;;6.50;2.20;;;;;;;19.04;30.51;100375.78;5074565;28;20474;-73
2021/05/08 01:38:00;;;;;;;5.88;1.70;;;;;;;19.10;30.94;100373.44;5074548;28;20032;-73
2021/05/08 01:40:31;;;;;;;6.75;1.83;;;;;;;19.03;31.60;100362.28;5074157;28;20027;-73
2021/05/08 01:42:57;;;;;;;5.65;2.10;;;;;;;18.91;32.07;100359.81;5074788;28;20020;-73
2021/05/08 01:45:24;;;;;;;4.80;1.88;;;;;;;18.98;32.57;100348.81;5074445;28;20032;-73
2021/05/08 01:47:52;;;;;;;6.97;2.30;;;;;;;19.03;32.72;100340.94;5074345;28;20094;-73
2021/05/08 01:50:20;;;;;;;7.20;2.78;;;;;;;18.67;33.76;100336.19;5074304;28;20029;-73
2021/05/08 01:52:46;;;;;;;7.68;2.95;;;;;;;18.28;34.75;100330.91;5074243;28;20032;-73
2021/05/08 01:55:15;;;;;;;18.20;2.53;;;;;;;18.18;34.90;100329.59;5074230;28;20025;-73
2021/05/08 01:57:43;;;;;;;7.85;2.60;;;;;;;17.95;35.71;100309.53;5072852;28;20093;-73
2021/05/08 02:00:12;;;;;;;4.82;2.00;;;;;;;17.90;35.29;100301.56;5073989;28;20066;-73
2021/05/08 02:02:37;;;;;;;7.43;1.60;;;;;;;17.83;35.34;100287.63;5074276;28;20029;-73
2021/05/08 02:05:06;;;;;;;7.03;2.80;;;;;;;18.21;35.25;100273.56;5074026;28;20025;-73
2021/05/08 02:07:31;;;;;;;6.72;2.50;;;;;;;18.18;35.53;100267.97;5073911;28;20547;-72
2021/05/08 02:09:57;;;;;;;8.88;3.20;;;;;;;17.90;36.23;100260.91;5072581;28;20070;-73
2021/05/08 02:12:28;;;;;;;13.65;3.03;;;;;;;17.81;36.42;100241.03;5073775;28;20052;-73
2021/05/08 02:14:55;;;;;;;12.75;2.50;;;;;;;17.89;36.79;100236.41;5073764;28;20021;-73
2021/05/08 02:17:20;;;;;;;11.65;2.72;;;;;;;17.71;37.41;100225.91;5073744;28;20048;-73
2021/05/08 02:19:46;;;;;;;7.78;2.55;;;;;;;17.83;37.17;100215.78;5073686;28;20052;-74
2021/05/08 02:22:11;;;;;;;9.82;3.63;;;;;;;18.02;36.79;100208.16;5073495;28;20082;-73
2021/05/08 02:24:37;;;;;;;13.23;3.67;;;;;;;18.03;37.08;100208.94;5073614;28;20178;-72
2021/05/08 02:27:03;;;;;;;16.38;4.10;;;;;;;17.48;38.22;100192.78;5073478;28;20562;-73
2021/05/08 02:29:28;;;;;;;10.70;3.20;;;;;;;18.03;36.95;100184.06;5073486;28;20028;-74
2021/05/08 02:31:54;;;;;;;7.43;2.53;;;;;;;17.74;37.69;100171.84;5073278;28;20031;-73
2021/05/08 02:34:20;;;;;;;8.77;3.25;;;;;;;17.74;38.07;100178.19;5073449;28;20098;-73
2021/05/08 02:36:45;;;;;;;8.05;2.63;;;;;;;17.77;38.00;100162.03;5073401;28;20479;-73
2021/05/08 02:39:11;;;;;;;8.50;2.85;;;;;;;17.81;37.73;100158.13;5073238;28;20028;-74
2021/05/08 02:41:37;;;;;;;9.13;3.35;;;;;;;17.66;38.38;100154.34;5071475;28;20055;-73
2021/05/08 02:44:03;;;;;;;8.48;3.08;;;;;;;17.58;39.05;100140.81;5072537;28;20024;-73
2021/05/08 02:46:28;;;;;;;12.27;3.53;;;;;;;17.81;38.34;100133.25;5073162;28;20498;-74
2021/05/08 02:48:54;;;;;;;8.55;3.03;;;;;;;17.51;39.01;100136.00;5073109;28;20036;-73
2021/05/08 02:51:20;;;;;;;12.82;4.50;;;;;;;17.85;38.12;100123.06;5072271;28;20102;-73
2021/05/08 02:53:45;;;;;;;11.02;2.50;;;;;;;17.68;38.72;100118.06;5073085;28;20028;-81
2021/05/08 02:56:11;;;;;;;11.95;3.78;;;;;;;17.34;39.68;100103.44;5073054;28;20025;-73
2021/05/08 02:58:36;;;;;;;10.10;2.80;;;;;;;17.22;39.65;100106.41;5073018;28;20028;-80
2021/05/08 03:01:02;;;;;;;6.82;3.15;;;;;;;17.52;39.23;100087.88;5071596;28;20025;-72
2021/05/08 03:03:28;;;;;;;10.10;3.40;;;;;;;17.42;39.33;100075.53;5072956;28;20383;-73
2021/05/08 03:05:54;;;;;;;16.58;3.45;;;;;;;17.38;39.49;100066.41;5071676;28;20077;-73
2021/05/08 03:08:19;;;;;;;12.57;3.53;;;;;;;17.26;40.21;100063.88;5071606;28;20055;-79
2021/05/08 03:10:46;;;;;;;10.38;3.28;;;;;;;17.17;40.45;100055.88;5072754;28;20024;-74
2021/05/08 03:13:12;;;;;;;13.40;3.22;;;;;;;17.23;40.25;100038.97;5072951;28;20021;-75
2021/05/08 03:15:37;;;;;;;8.23;3.35;;;;;;;17.06;40.55;100027.31;5072762;28;20387;-73
2021/05/08 03:18:03;;;;;;;9.88;3.15;;;;;;;16.90;40.59;100022.00;5072727;28;20031;-81
2021/05/08 03:20:28;;;;;;;7.63;3.00;;;;;;;16.90;40.53;100013.72;5072659;28;20560;-78
2021/05/08 03:22:54;;;;;;;10.40;3.40;;;;;;;17.09;40.21;100004.50;5072753;28;20048;-80
2021/05/08 03:25:20;;;;;;;13.32;3.50;;;;;;;17.02;40.78;100000.88;5072593;28;20024;-73
2021/05/08 03:27:45;;;;;;;10.73;3.53;;;;;;;16.95;41.59;99986.97;5072715;28;20107;-73
2021/05/08 03:30:11;;;;;;;13.52;3.55;;;;;;;16.81;41.89;99993.88;5072667;28;20027;-73
2021/05/08 03:32:37;;;;;;;11.27;3.40;;;;;;;17.07;41.23;99979.22;5072507;28;20032;-73
2021/05/08 03:35:04;;;;;;;12.50;3.45;;;;;;;16.95;41.41;99962.13;5072521;28;20104;-80
2021/05/08 03:37:30;;;;;;;14.95;3.83;;;;;;;17.03;41.51;99970.13;5072623;28;20115;-72
2021/05/08 03:39:55;;;;;;;9.93;4.28;;;;;;;17.33;40.95;99958.25;5071230;28;20024;-73
2021/05/08 03:42:21;;;;;;;16.33;4.30;;;;;;;17.25;41.36;99951.06;5072163;28;20441;-73
2021/05/08 03:44:46;;;;;;;12.00;4.22;;;;;;;17.37;41.09;99932.25;5072457;28;20029;-72
2021/05/08 03:47:12;;;;;;;11.50;4.88;;;;;;;17.25;41.59;99928.97;5071191;28;20364;-80
2021/05/08 03:49:38;;;;;;;19.67;4.25;;;;;;;17.24;41.21;99927.41;5072436;28;20056;-76
2021/05/08 03:52:05;;;;;;;9.50;3.30;;;;;;;16.76;42.32;99902.38;5072400;28;20423;-79
2021/05/08 03:54:31;;;;;;;10.80;4.40;;;;;;;16.98;41.60;99909.75;5072366;28;20052;-73
2021/05/08 03:56:58;;;;;;;13.82;4.10;;;;;;;17.00;41.25;99901.88;5071267;28;20121;-73
2021/05/08 03:59:24;;;;;;;16.63;4.07;;;;;;;17.08;41.28;99881.50;5072268;28;20433;-72
2021/05/08 04:01:50;;;;;;;13.95;3.95;;;;;;;16.88;41.92;99888.34;5072162;28;20028;-73
2021/05/08 04:04:15;;;;;;;16.08;4.30;;;;;;;16.80;42.08;99864.59;5075922;28;20050;-78
2021/05/08 04:06:41;;;;;;;14.20;4.60;;;;;;;17.09;42.00;99865.72;5076240;28;20493;-73
2021/05/08 04:09:08;;;;;;;13.27;4.38;;;;;;;17.00;41.77;99841.16;5075898;28;20119;-73
2021/05/08 04:11:38;;;;;;;13.65;5.22;;;;;;;16.94;42.41;99825.34;5075818;28;20120;-73
2021/05/08 04:14:06;;;;;;;15.35;4.53;;;;;;;16.47;42.59;99824.75;5076090;28;20033;-74
2021/05/08 04:16:32;;;;;;;7.90;3.63;;;;;;;16.60;42.35;99806.00;5075722;28;20063;-78
2021/05/08 04:18:59;;;;;;;13.60;5.13;;;;;;;16.75;42.33;99793.19;5075915;28;20459;-73
2021/05/08 04:21:25;;;;;;;14.82;4.85;;;;;;;16.83;42.40;99784.63;5075804;28;20478;-73
2021/05/08 04:23:51;;;;;;;17.23;4.78;;;;;;;16.49;43.34;99772.00;5075817;28;20070;-73
2021/05/08 04:26:17;;;;;;;11.07;3.20;;;;;;;16.23;43.80;99770.09;5075699;28;20029;-74
2021/05/08 04:28:43;;;;;;;10.90;3.75;;;;;;;16.08;43.75;99756.13;5074590;28;20029;-73
2021/05/08 04:31:08;;;;;;;12.77;3.97;;;;;;;16.32;43.13;99752.13;5075761;28;20024;-74
2021/05/08 04:33:34;;;;;;;13.77;4.00;;;;;;;16.22;43.65;99738.19;5074426;28;20025;-74
2021/05/08 04:35:59;;;;;;;11.63;4.15;;;;;;;16.22;43.82;99730.72;5075693;28;20024;-73
2021/05/08 04:38:25;;;;;;;19.33;5.75;;;;;;;16.54;43.43;99719.25;5075619;28;20024;-74
2021/05/08 04:40:54;;;;;;;21.50;4.88;;;;;;;16.37;44.23;99720.66;5075291;28;20049;-73
2021/05/08 04:43:20;;;;;;;23.40;4.45;;;;;;;16.32;44.46;99712.72;5075215;28;20533;-74
2021/05/08 04:45:46;;;;;;;18.83;5.07;;;;;;;16.56;44.22;99711.41;5075543;28;20032;-81
2021/05/08 04:48:11;;;;;;;23.05;5.82;;;;;;;16.73;44.00;99699.00;5074256;28;20036;-79
2021/05/08 04:50:37;;;;;;;30.75;6.32;;;;;;;17.22;43.38;99700.59;5074223;28;20112;-73
2021/05/08 04:53:03;;;;;;;27.92;6.07;;;;;;;16.91;44.28;99694.44;5073576;28;20074;-73
2021/05/08 04:55:28;;;;;;;12.07;4.45;;;;;;;16.43;45.03;99699.84;5069229;28;20055;-76
2021/05/08 04:57:54;;;;;;;20.83;5.70;;;;;;;16.35;44.64;99673.38;5055504;28;20021;-81
2021/05/08 05:00:19;;;;;;;26.33;5.78;;;;;;;16.81;44.13;99676.63;5055392;28;20029;-73
2021/05/08 05:02:47;;;;;;;18.48;4.25;;;;;;;16.25;45.46;99672.09;5055184;28;20120;-73
2021/05/08 05:05:14;;;;;;;20.83;5.65;;;;;;;16.64;44.92;99657.91;5055040;28;20391;-81
2021/05/08 05:07:43;;;;;;;27.83;6.25;;;;;;;16.58;44.88;99642.88;5053808;28;20021;-73
2021/05/08 05:10:13;;;;;;;22.17;6.28;;;;;;;16.61;44.92;99640.16;5055147;28;20029;-73
2021/05/08 05:12:39;;;;;;;19.15;4.90;;;;;;;16.27;45.62;99616.59;5055072;28;20032;-73
2021/05/08 05:15:06;;;;;;;21.33;5.28;;;;;;;16.19;46.03;99603.91;5054602;28;20055;-73
2021/05/08 05:17:31;;;;;;;23.63;5.78;;;;;;;16.32;45.74;99597.75;5054970;28;20487;-75
2021/05/08 05:19:57;;;;;;;24.15;7.18;;;;;;;16.89;44.50;99587.22;5054957;28;20036;-73
2021/05/08 05:22:22;;;;;;;26.00;6.90;;;;;;;16.47;45.41;99595.09;5054752;28;20033;-73
2021/05/08 05:24:48;;;;;;;22.88;5.95;;;;;;;16.45;45.65;99573.44;5054856;28;20066;-74
2021/05/08 05:27:13;;;;;;;15.85;4.70;;;;;;;16.02;46.83;99567.53;5054811;28;20059;-81
2021/05/08 05:29:39;;;;;;;19.20;5.72;;;;;;;16.36;45.80;99576.50;5054682;28;20032;-74
2021/05/08 05:32:05;;;;;;;16.77;4.38;;;;;;;16.45;45.60;99543.09;5054718;28;20115;-74
2021/05/08 05:34:31;;;;;;;16.85;6.25;;;;;;;16.21;46.37;99540.94;5054689;28;20017;-73
2021/05/08 05:36:56;;;;;;;18.88;4.82;;;;;;;16.25;46.33;99526.03;5054574;28;20044;-73
2021/05/08 05:39:22;;;;;;;22.95;5.57;;;;;;;16.06;47.15;99518.75;5054506;28;20025;-81
2021/05/08 05:41:47;;;;;;;16.95;5.80;;;;;;;16.22;46.77;99520.47;5054211;28;20119;-74
2021/05/08 05:44:13;;;;;;;18.60;5.72;;;;;;;16.13;47.06;99489.69;5054610;28;20407;-74
2021/05/08 05:46:38;;;;;;;26.23;7.78;;;;;;;16.40;46.98;99469.03;5054395;28;20029;-74
2021/05/08 05:49:04;;;;;;;24.60;6.95;;;;;;;16.09;47.51;99476.63;5054314;28;20021;-73
2021/05/08 05:51:30;;;;;;;24.15;5.60;;;;;;;16.35;47.27;99472.16;5054263;28;20025;-73
2021/05/08 05:53:58;;;;;;;28.13;4.95;;;;;;;16.05;47.49;99480.56;5054265;28;20025;-74
2021/05/08 05:56:27;;;;;;;27.98;7.53;;;;;;;16.45;47.18;99489.94;5054214;28;20118;-74
2021/05/08 05:58:54;;;;;;;23.40;5.82;;;;;;;16.70;45.97;99503.91;5054132;28;20025;-74
2021/05/08 06:01:20;;;;;;;26.98;6.03;;;;;;;16.52;46.82;99512.84;5053992;28;20087;-74
2021/05/08 06:03:46;;;;;;;24.63;6.57;;;;;;;16.27;47.27;99489.81;5054020;28;20029;-73
2021/05/08 06:06:12;;;;;;;25.88;7.10;;;;;;;16.27;47.59;99484.28;5054011;28;20090;-74
2021/05/08 06:08:38;;;;;;;27.92;7.10;;;;;;;16.63;46.75;99477.88;5053879;28;20060;-74
2021/05/08 06:11:05;;;;;;;23.23;5.55;;;;;;;16.13;47.64;99462.91;5059320;28;20028;-81
2021/05/08 06:13:35;;;;;;;27.48;6.80;;;;;;;16.50;47.23;99467.53;5072423;28;20372;-74
2021/05/08 06:16:02;;;;;;;29.98;6.93;;;;;;;16.89;46.35;99449.28;5072711;28;20040;-73
2021/05/08 06:18:28;;;;;;;32.22;7.93;;;;;;;16.94;46.53;99431.56;5069731;28;20032;-77
2021/05/08 06:20:54;;;;;;;24.42;6.25;;;;;;;16.55;47.30;99431.31;5072518;28;20039;-78
2021/05/08 06:23:20;;;;;;;35.83;8.07;;;;;;;16.67;46.81;99428.22;5072485;28;20024;-76
2021/05/08 06:25:46;;;;;;;20.13;6.63;;;;;;;16.46;47.41;99436.38;5071810;28;20028;-76
2021/05/08 06:28:12;;;;;;;21.73;6.53;;;;;;;16.51;47.59;99406.47;5072666;28;20031;-76
2021/05/08 06:30:38;;;;;;;39.08;9.27;;;;;;;16.78;46.85;99398.00;5070991;28;20039;-76
2021/05/08 06:33:04;;;;;;;35.60;6.93;;;;;;;16.58;47.73;99387.22;5072293;28;20021;-78
2021/05/08 06:35:29;;;;;;;26.05;6.50;;;;;;;16.64;47.56;99374.66;5072438;28;20040;-77
2021/05/08 06:37:55;;;;;;;33.30;7.43;;;;;;;17.03;46.54;99381.53;5073111;28;20031;-77
2021/05/08 06:40:20;;;;;;;45.05;8.60;;;;;;;16.76;47.33;99361.72;5072585;28;20028;-75
2021/05/08 06:42:46;;;;;;;34.03;9.48;;;;;;;16.96;47.09;99356.69;5071996;28;20036;-76
2021/05/08 06:45:12;;;;;;;24.77;7.35;;;;;;;16.67;47.74;99364.81;5072823;28;20556;-75
2021/05/08 06:47:39;;;;;;;29.58;7.10;;;;;;;16.96;47.28;99353.91;5072780;28;20055;-75
2021/05/08 06:50:05;;;;;;;24.17;7.40;;;;;;;16.89;47.14;99343.66;5072789;28;20020;-75
2021/05/08 06:52:31;;;;;;;29.05;8.13;;;;;;;17.02;47.21;99341.34;5072110;28;20033;-75
2021/05/08 06:54:57;;;;;;;31.15;7.25;;;;;;;17.17;46.78;99329.94;5072594;28;20041;-76
2021/05/08 06:57:22;;;;;;;37.15;7.30;;;;;;;17.27;46.71;99324.81;5072122;28;20029;-76
2021/05/08 06:59:51;;;;;;;35.25;8.27;;;;;;;17.14;46.81;99327.94;5071790;28;20028;-77
2021/05/08 07:02:16;;;;;;;34.70;7.97;;;;;;;17.35;46.57;99312.59;5071600;28;20097;-78
2021/05/08 07:04:42;;;;;;;24.33;5.85;;;;;;;17.31;46.53;99314.59;5071729;28;20024;-76
2021/05/08 07:07:07;;;;;;;27.95;5.97;;;;;;;17.05;47.32;99307.44;5072051;28;20069;-76
2021/05/08 07:09:33;;;;;;;29.98;7.78;;;;;;;16.81;48.02;99292.38;5072021;28;20032;-77
2021/05/08 07:11:59;;;;;;;34.53;8.80;;;;;;;17.41;46.59;99294.47;5071691;28;20480;-79
2021/05/08 07:14:24;;;;;;;23.35;6.78;;;;;;;17.45;46.40;99281.44;5070036;28;20036;-75
2021/05/08 07:16:50;;;;;;;32.70;6.68;;;;;;;17.42;46.30;99273.94;5070242;28;20467;-79
2021/05/08 07:19:15;;;;;;;40.00;8.32;;;;;;;17.41;46.73;99262.13;5072354;28;20387;-86
2021/05/08 07:21:41;;;;;;;23.88;6.55;;;;;;;17.56;46.18;99256.59;5073131;28;20470;-92
2021/05/08 07:24:07;;;;;;;27.35;6.88;;;;;;;17.38;46.69;99249.13;5073218;28;20525;-81
2021/05/08 07:26:33;;;;;;;22.17;6.00;;;;;;;17.41;46.89;99244.78;5072952;28;20039;-76
2021/05/08 07:29:00;;;;;;;16.58;5.05;;;;;;;17.36;46.97;99237.66;5072554;28;20028;-79
2021/05/08 07:31:26;;;;;;;25.15;5.90;;;;;;;17.56;46.48;99229.78;5071888;28;20478;-75
2021/05/08 07:33:52;;;;;;;20.85;4.95;;;;;;;17.54;46.79;99228.59;5070859;28;20463;-80
2021/05/08 07:36:19;;;;;;;15.02;4.82;;;;;;;17.32;47.49;99214.00;5072110;28;20085;-84
2021/05/08 07:38:45;;;;;;;27.08;7.28;;;;;;;17.71;46.26;99217.53;5072720;28;20107;-74
2021/05/08 07:41:11;;;;;;;34.30;5.28;;;;;;;17.89;46.00;99225.78;5072201;28;20053;-74
2021/05/08 07:43:37;;;;;;;20.33;5.40;;;;;;;17.73;46.46;99215.16;5072602;28;20029;-74
2021/05/08 07:46:03;;;;;;;21.63;4.90;;;;;;;18.14;45.39;99209.13;5071187;28;20033;-88
2021/05/08 07:48:29;;;;;;;24.15;6.75;;;;;;;17.94;45.99;99194.97;5071104;28;20088;-88
2021/05/08 07:50:54;;;;;;;30.65;6.05;;;;;;;18.06;45.99;99193.78;5073092;28;20094;-86
2021/05/08 07:53:20;;;;;;;23.65;7.35;;;;;;;18.02;46.22;99179.16;5072378;28;20032;-76
2021/05/08 07:55:46;;;;;;;30.40;6.20;;;;;;;18.16;46.06;99189.38;5071068;28;20102;-77
2021/05/08 07:58:12;;;;;;;27.40;5.97;;;;;;;17.71;47.26;99167.03;5071991;28;20032;-77
2021/05/08 08:00:37;;;;;;;17.85;4.97;;;;;;;18.05;46.24;99159.00;5072223;28;20032;-82
2021/05/08 08:03:04;;;;;;;36.47;6.30;;;;;;;18.32;45.73;99139.16;5072464;28;20483;-77
2021/05/08 08:05:30;;;;;;;23.27;6.47;;;;;;;18.58;45.28;99124.75;5072536;28;20082;-77
2021/05/08 08:07:56;;;;;;;32.25;6.50;;;;;;;18.88;44.38;99145.50;5072267;28;20478;-87
2021/05/08 08:10:23;;;;;;;22.10;5.20;;;;;;;18.77;44.51;99143.63;5072326;28;20086;-77
2021/05/08 08:12:49;;;;;;;15.60;5.00;;;;;;;18.57;45.54;99131.47;5072179;28;20032;-86
2021/05/08 08:15:15;;;;;;;25.15;6.00;;;;;;;18.76;45.07;99130.97;5071996;28;20558;-77
2021/05/08 08:17:41;;;;;;;34.95;7.70;;;;;;;18.90;44.63;99132.06;5072485;28;20028;-87
2021/05/08 08:20:10;;;;;;;30.70;6.47;;;;;;;18.52;45.70;99118.88;5072386;28;20107;-76
2021/05/08 08:22:37;;;;;;;30.05;7.50;;;;;;;19.04;44.46;99116.13;5056168;28;20032;-81
2021/05/08 08:25:04;;;;;;;27.08;7.70;;;;;;;19.03;44.73;99110.97;5054620;28;20052;-78
2021/05/08 08:27:30;;;;;;;30.45;11.57;;;;;;;19.12;44.61;99105.78;5055980;28;20073;-86
2021/05/08 08:29:55;;;;;;;24.27;6.93;;;;;;;18.88;45.44;99095.69;5055789;28;20016;-77
2021/05/08 08:32:21;;;;;;;32.45;9.05;;;;;;;19.01;45.09;99099.53;5054742;28;20078;-82
2021/05/08 08:34:46;;;;;;;27.52;9.00;;;;;;;19.21;44.73;99100.53;5055099;28;20036;-84
2021/05/08 08:37:12;;;;;;;33.78;6.82;;;;;;;19.28;44.72;99100.47;5057882;28;20029;-83
2021/05/08 08:39:38;;;;;;;28.02;7.10;;;;;;;19.33;44.84;99077.84;5055757;28;20111;-83
2021/05/08 08:42:10;;;;;;;27.40;8.55;;;;;;;19.55;44.67;99075.63;5055099;28;20123;-78
2021/05/08 08:44:36;;;;;;;42.92;8.55;;;;;;;19.76;44.09;99074.63;5054237;28;20029;-77
2021/05/08 08:47:28;;;;;;;21.52;5.47;;;;;;;19.48;45.35;99066.63;5053294;28;20046;-85
2021/05/08 08:49:52;;;;;;;40.45;7.45;;;;;;;19.82;44.53;99056.34;5052540;28;20024;-83
2021/05/08 08:52:18;;;;;;;41.10;7.38;;;;;;;20.14;43.68;99060.66;5057552;28;20037;-80
2021/05/08 08:54:43;;;;;;;21.52;6.45;;;;;;;20.11;44.22;99051.19;5058933;28;20482;-81
2021/05/08 08:57:12;;;;;;;38.05;7.53;;;;;;;20.29;43.81;99055.69;5051240;28;20017;-78
2021/05/08 08:59:38;;;;;;;31.17;6.20;;;;;;;20.29;44.15;99050.94;5056252;28;20020;-85
2021/05/08 09:02:03;;;;;;;38.17;7.85;;;;;;;20.40;44.20;99047.97;5056803;28;20127;-76
2021/05/08 09:04:29;;;;;;;27.35;8.25;;;;;;;20.78;43.35;99038.28;5054045;28;20033;-76
2021/05/08 09:06:54;;;;;;;64.20;17.27;;;;;;;20.96;43.34;99042.72;5056179;28;20049;-78
2021/05/08 09:09:22;;;;;;;39.40;12.48;;;;;;;21.04;43.44;99033.84;5053717;28;20036;-83
2021/05/08 09:11:54;;;;;;;54.55;20.00;;;;;;;21.10;43.84;99034.13;5055334;28;20059;-77
2021/05/08 09:14:25;;;;;;;53.47;18.83;;;;;;;21.19;44.05;99022.47;5055403;28;20036;-82
2021/05/08 09:17:07;;;;;;;54.50;14.50;;;;;;;21.20;44.04;99024.81;5068056;28;20101;-81
2021/05/08 09:19:34;;;;;;;63.45;22.75;;;;;;;21.54;43.31;99027.34;5055252;28;20025;-78
2021/05/08 09:22:24;;;;;;;63.47;15.05;;;;;;;21.86;43.20;99028.66;5069561;27;20470;-81
2021/05/08 09:25:02;;;;;;;54.55;13.93;;;;;;;21.96;43.46;99024.84;5070694;28;20082;-82
2021/05/08 09:27:32;;;;;;;45.92;10.80;;;;;;;22.15;43.14;99028.84;5069193;28;20040;-78
2021/05/08 09:30:09;;;;;;;52.17;13.30;;;;;;;22.23;43.13;99029.47;5072535;28;20024;-79
2021/05/08 09:32:39;;;;;;;45.17;13.95;;;;;;;22.52;42.86;99030.34;5071564;28;20442;-84
2021/05/08 09:35:08;;;;;;;46.53;9.45;;;;;;;22.80;42.15;99033.63;5070734;28;20032;-82
2021/05/08 09:37:34;;;;;;;50.83;11.90;;;;;;;22.82;42.60;99029.19;5069961;27;20040;-75
2021/05/08 09:40:12;;;;;;;35.35;8.57;;;;;;;23.09;42.32;99022.53;5072299;28;20042;-75
2021/05/08 09:42:51;;;;;;;25.25;7.10;;;;;;;23.11;42.63;99022.88;5069706;28;20056;-77
2021/05/08 09:45:18;;;;;;;32.95;7.88;;;;;;;23.25;42.28;99034.41;5067799;28;20424;-79
2021/05/08 09:47:44;;;;;;;24.60;6.72;;;;;;;23.58;41.93;99031.53;5071659;27;20055;-80
2021/05/08 09:50:11;;;;;;;22.00;6.28;;;;;;;23.80;41.73;99031.69;5071316;28;20020;-81
2021/05/08 09:52:44;;;;;;;15.43;4.97;;;;;;;23.86;42.19;99029.13;5072877;27;20075;-87
2021/05/08 09:55:12;;;;;;;21.95;7.15;;;;;;;24.08;41.27;99035.63;5069947;28;20025;-84
2021/05/08 09:57:37;;;;;;;20.77;6.25;;;;;;;24.26;41.56;99037.88;5071303;28;20119;-81
2021/05/08 10:00:24;;;;;;;15.95;5.25;;;;;;;24.46;41.84;99038.44;5069066;28;20159;-86
2021/05/08 10:03:10;;;;;;;17.05;5.50;;;;;;;24.61;42.57;99033.94;5070815;28;20067;-80
2021/05/08 10:05:37;;;;;;;12.35;4.00;;;;;;;24.78;41.83;99031.78;5071207;28;20017;-80
2021/05/08 10:08:04;;;;;;;8.35;3.10;;;;;;;24.85;42.05;99039.16;5062783;28;20032;-81
2021/05/08 10:10:30;;;;;;;15.80;4.20;;;;;;;24.74;42.56;99041.53;5066298;28;20120;-81
2021/05/08 10:12:57;;;;;;;9.10;3.28;;;;;;;25.11;41.45;99040.69;5069261;27;20067;-79
2021/05/08 10:15:23;;;;;;;8.55;2.53;;;;;;;24.89;42.54;99039.81;5068256;28;20103;-78
2021/05/08 10:17:51;;;;;;;12.48;9.70;;;;;;;25.07;41.57;99044.81;5065637;27;20718;-82
2021/05/08 10:20:19;;;;;;;7.05;2.13;;;;;;;24.81;41.96;99044.09;5065484;28;20027;-79
2021/05/08 10:23:05;;;;;;;6.50;2.03;;;;;;;24.97;41.50;99040.34;5068292;27;20082;-75
2021/05/08 10:25:31;;;;;;;6.93;2.70;;;;;;;25.16;41.02;99042.91;5066162;28;20028;-77
2021/05/08 10:27:57;;;;;;;6.60;2.58;;;;;;;25.15;41.18;99049.69;5069481;28;20570;-79
2021/05/08 10:30:45;;;;;;;10.00;3.20;;;;;;;25.10;40.95;99058.69;5067771;28;20093;-79
2021/05/08 10:33:13;;;;;;;6.07;3.33;;;;;;;24.73;41.49;99060.31;5068844;27;20067;-81
2021/05/08 10:35:45;;;;;;;4.00;3.15;;;;;;;25.16;39.98;99056.06;5069365;28;20051;-83
2021/05/08 10:38:23;;;;;;;10.27;3.88;;;;;;;25.10;40.52;99063.50;5067400;28;20059;-80
2021/05/08 10:40:53;;;;;;;4.45;3.03;;;;;;;25.16;40.16;99061.66;5067267;28;20094;-78
2021/05/08 10:43:38;;;;;;;4.72;3.47;;;;;;;25.09;40.06;99064.69;5063322;27;20032;-76
2021/05/08 10:46:04;;;;;;;2.97;2.47;;;;;;;24.72;40.63;99069.91;5052149;28;20041;-78
2021/05/08 10:48:30;;;;;;;4.40;3.20;;;;;;;24.86;40.74;99069.44;5051102;28;20045;-79
2021/05/08 10:51:00;;;;;;;3.28;2.97;;;;;;;25.19;40.10;99063.56;5051473;28;20028;-77
2021/05/08 10:53:43;;;;;;;6.68;3.53;;;;;;;25.05;40.36;99070.41;5051009;28;20045;-76
2021/05/08 10:56:29;;;;;;;3.67;3.10;;;;;;;25.40;40.07;99067.63;5051522;28;20024;-81
2021/05/08 10:59:06;;;;;;;4.40;2.70;;;;;;;25.54;39.81;99077.50;5052121;28;20024;-75
2021/05/08 11:01:43;;;;;;;4.85;2.70;;;;;;;25.52;40.08;99075.16;5051563;28;20108;-73
2021/05/08 11:04:09;;;;;;;3.08;2.00;;;;;;;25.08;39.77;99079.91;5052643;28;21092;-73
2021/05/08 11:06:35;;;;;;;3.08;1.67;;;;;;;25.50;38.41;99082.44;5051383;28;20055;-76
2021/05/08 11:09:01;;;;;;;3.92;1.60;;;;;;;24.75;39.24;99088.56;5049414;28;20143;-77
2021/05/08 11:11:48;;;;;;;7.30;2.47;;;;;;;25.52;37.84;99091.16;5047690;28;21011;-81
2021/05/08 11:14:14;;;;;;;5.35;1.70;;;;;;;25.83;37.56;99092.03;5053006;28;20036;-81
2021/05/08 11:16:57;;;;;;;4.68;1.52;;;;;;;26.09;36.62;99084.25;5051233;28;20046;-79
2021/05/08 11:19:24;;;;;;;5.20;1.50;;;;;;;25.70;36.88;99099.69;5051907;28;20414;-72
2021/05/08 11:22:03;;;;;;;2.72;1.30;;;;;;;26.12;35.97;99102.91;5049280;28;20880;-76
2021/05/08 11:24:34;;;;;;;4.50;1.55;;;;;;;25.59;36.50;99102.09;5050286;28;20028;-82